createdAt,value
2018-08-27T00:00:04.679Z,0
2018-08-27T00:01:04.699Z,0
2018-08-27T00:01:49.544Z,0
2018-08-27T00:02:49.565Z,0
2018-08-27T00:03:50.100Z,0
2018-08-27T00:04:50.125Z,0
2018-08-27T00:06:04.548Z,0
2018-08-27T00:06:50.163Z,0
2018-08-27T00:07:50.183Z,0
2018-08-27T00:09:49.974Z,0
2018-08-27T00:10:50.248Z,0
2018-08-27T00:12:04.671Z,0
2018-08-27T00:12:50.037Z,0
2018-08-27T00:13:50.313Z,0
2018-08-27T00:14:50.076Z,0
2018-08-27T00:15:50.352Z,0
2018-08-27T00:16:49.862Z,0
2018-08-27T00:17:50.400Z,0
2018-08-27T00:18:50.167Z,0
2018-08-27T00:19:50.439Z,0
2018-08-27T00:20:50.202Z,0
2018-08-27T00:21:50.480Z,0
2018-08-27T00:22:50.503Z,0
2018-08-27T00:23:50.536Z,0
2018-08-27T00:24:50.541Z,0
2018-08-27T00:25:50.578Z,0
2018-08-27T00:27:04.987Z,0
2018-08-27T00:27:50.357Z,0
2018-08-27T00:28:50.372Z,0
2018-08-27T00:29:50.666Z,0
2018-08-27T00:30:50.679Z,0
2018-08-27T00:32:04.836Z,0
2018-08-27T00:32:50.713Z,0
2018-08-27T00:33:50.739Z,0
2018-08-27T00:34:50.755Z,0
2018-08-27T00:35:50.775Z,0
2018-08-27T00:36:50.796Z,0
2018-08-27T00:38:05.479Z,0
2018-08-27T00:38:50.580Z,0
2018-08-27T00:39:50.873Z,0
2018-08-27T00:40:50.620Z,0
2018-08-27T00:41:50.645Z,0
2018-08-27T00:42:50.929Z,0
2018-08-27T00:43:50.691Z,0
2018-08-27T00:44:50.704Z,0
2018-08-27T00:47:50.612Z,0
2018-08-27T00:48:51.152Z,0
2018-08-27T00:49:51.076Z,0
2018-08-27T00:50:50.583Z,0
2018-08-27T00:51:51.108Z,0
2018-08-27T00:52:51.144Z,0
2018-08-27T00:54:05.558Z,0
2018-08-27T00:54:50.666Z,0
2018-08-27T00:55:50.690Z,0
2018-08-27T00:56:50.702Z,0
2018-08-27T00:57:50.985Z,0
2018-08-27T00:59:51.281Z,0
2018-08-27T01:00:51.303Z,0
2018-08-27T01:01:51.377Z,0
2018-08-27T01:02:51.086Z,0
2018-08-27T01:04:06.033Z,0
2018-08-27T01:04:51.389Z,0
2018-08-27T01:05:51.153Z,0
2018-08-27T01:06:51.177Z,0
2018-08-27T01:07:51.190Z,0
2018-08-27T01:08:51.474Z,0
2018-08-27T01:10:20.814Z,0
2018-08-27T01:10:50.996Z,0
2018-08-27T01:11:51.018Z,0
2018-08-27T01:12:51.554Z,0
2018-08-27T01:13:51.579Z,0
2018-08-27T01:14:51.443Z,0
2018-08-27T01:15:51.363Z,0
2018-08-27T01:16:51.382Z,0
2018-08-27T01:17:51.146Z,0
2018-08-27T01:19:06.347Z,0
2018-08-27T01:19:51.444Z,0
2018-08-27T01:20:51.726Z,0
2018-08-27T01:21:51.745Z,0
2018-08-27T01:22:51.252Z,0
2018-08-27T01:23:51.790Z,0
2018-08-27T01:24:51.813Z,0
2018-08-27T01:26:06.229Z,0
2018-08-27T01:27:51.969Z,0
2018-08-27T01:28:51.897Z,0
2018-08-27T01:30:06.313Z,0
2018-08-27T01:30:51.930Z,0
2018-08-27T01:31:51.702Z,0
2018-08-27T01:32:51.720Z,0
2018-08-27T01:35:06.677Z,0
2018-08-27T01:35:51.785Z,0
2018-08-27T01:37:06.458Z,0
2018-08-27T01:37:51.820Z,0
2018-08-27T01:38:52.097Z,0
2018-08-27T01:39:52.138Z,0
2018-08-27T01:41:06.803Z,0
2018-08-27T01:41:51.906Z,0
2018-08-27T01:42:51.928Z,0
2018-08-27T01:43:51.944Z,0
2018-08-27T01:44:51.967Z,0
2018-08-27T01:46:06.652Z,0
2018-08-27T01:46:52.267Z,0
2018-08-27T01:47:51.771Z,0
2018-08-27T01:48:52.053Z,0
2018-08-27T01:49:52.078Z,0
2018-08-27T01:50:52.093Z,0
2018-08-27T01:52:07.037Z,0
2018-08-27T01:52:52.389Z,0
2018-08-27T01:53:52.415Z,0
2018-08-27T01:54:52.460Z,0
2018-08-27T01:55:52.202Z,0
2018-08-27T01:56:52.217Z,0
2018-08-27T01:57:52.240Z,0
2018-08-27T01:58:52.258Z,0
2018-08-27T01:59:52.278Z,0
2018-08-27T02:00:52.561Z,0
2018-08-27T02:01:52.426Z,0
2018-08-27T02:02:52.603Z,0
2018-08-27T02:03:52.106Z,0
2018-08-27T02:04:52.642Z,0
2018-08-27T02:05:52.661Z,0
2018-08-27T02:06:52.738Z,0
2018-08-27T02:07:52.445Z,0
2018-08-27T02:08:52.475Z,0
2018-08-27T02:09:52.485Z,0
2018-08-27T02:10:52.250Z,0
2018-08-27T02:11:52.785Z,0
2018-08-27T02:13:06.949Z,0
2018-08-27T02:14:07.490Z,0
2018-08-27T02:14:52.848Z,0
2018-08-27T02:15:52.879Z,0
2018-08-27T02:17:07.554Z,0
2018-08-27T02:17:52.922Z,0
2018-08-27T02:18:52.936Z,0
2018-08-27T02:19:52.967Z,0
2018-08-27T02:20:53.026Z,0
2018-08-27T02:22:07.667Z,0
2018-08-27T02:22:53.012Z,0
2018-08-27T02:23:53.038Z,0
2018-08-27T02:24:52.791Z,0
2018-08-27T02:25:53.322Z,0
2018-08-27T02:26:52.579Z,0
2018-08-27T02:27:52.857Z,0
2018-08-27T02:29:22.458Z,0
2018-08-27T02:30:52.659Z,0
2018-08-27T02:31:53.204Z,0
2018-08-27T02:32:53.222Z,0
2018-08-27T02:33:53.248Z,0
2018-08-27T02:34:53.378Z,0
2018-08-27T02:35:53.027Z,0
2018-08-27T02:36:53.306Z,0
2018-08-27T02:37:53.328Z,0
2018-08-27T02:38:53.343Z,0
2018-08-27T02:39:53.103Z,0
2018-08-27T02:40:53.386Z,0
2018-08-27T02:41:53.416Z,0
2018-08-27T02:42:52.908Z,0
2018-08-27T02:43:53.186Z,0
2018-08-27T02:45:08.133Z,0
2018-08-27T02:46:08.149Z,0
2018-08-27T02:46:53.259Z,0
2018-08-27T02:47:53.537Z,0
2018-08-27T02:48:53.542Z,0
2018-08-27T02:49:53.563Z,0
2018-08-27T02:50:53.084Z,0
2018-08-27T02:51:53.093Z,0
2018-08-27T02:52:53.629Z,0
2018-08-27T02:53:53.657Z,0
2018-08-27T02:54:53.411Z,0
2018-08-27T02:55:53.175Z,0
2018-08-27T02:56:53.453Z,0
2018-08-27T02:57:53.218Z,0
2018-08-27T02:58:53.501Z,0
2018-08-27T02:59:53.781Z,0
2018-08-27T03:01:08.450Z,0
2018-08-27T03:02:07.960Z,0
2018-08-27T03:02:53.320Z,0
2018-08-27T03:03:53.606Z,0
2018-08-27T03:04:53.882Z,0
2018-08-27T03:05:53.641Z,0
2018-08-27T03:06:53.658Z,0
2018-08-27T03:07:53.421Z,0
2018-08-27T03:08:53.442Z,0
2018-08-27T03:09:53.982Z,0
2018-08-27T03:10:54.001Z,0
2018-08-27T03:11:53.755Z,0
2018-08-27T03:12:54.042Z,0
2018-08-27T03:13:54.058Z,0
2018-08-27T03:14:53.563Z,0
2018-08-27T03:16:08.759Z,0
2018-08-27T03:16:53.601Z,0
2018-08-27T03:17:54.146Z,0
2018-08-27T03:18:54.165Z,0
2018-08-27T03:19:54.184Z,0
2018-08-27T03:20:54.202Z,0
2018-08-27T03:22:54.245Z,0
2018-08-27T03:23:54.264Z,0
2018-08-27T03:24:54.162Z,0
2018-08-27T03:25:54.304Z,0
2018-08-27T03:26:53.811Z,0
2018-08-27T03:28:54.378Z,0
2018-08-27T03:29:54.130Z,0
2018-08-27T03:31:09.067Z,0
2018-08-27T03:31:54.168Z,0
2018-08-27T03:32:54.187Z,0
2018-08-27T03:33:54.472Z,4
2018-08-27T03:34:54.493Z,4
2018-08-27T03:35:54.521Z,0
2018-08-27T03:36:54.019Z,4
2018-08-27T03:37:54.548Z,4
2018-08-27T03:38:54.315Z,4
2018-08-27T03:39:54.337Z,8
2018-08-27T03:40:54.263Z,8
2018-08-27T03:41:54.377Z,8
2018-08-27T03:42:54.400Z,12
2018-08-27T03:43:54.675Z,16
2018-08-27T03:44:54.175Z,16
2018-08-27T03:45:54.480Z,24
2018-08-27T03:46:54.475Z,28
2018-08-27T03:48:24.108Z,32
2018-08-27T03:49:09.451Z,36
2018-08-27T03:50:54.298Z,48
2018-08-27T03:51:54.839Z,52
2018-08-27T03:52:54.339Z,60
2018-08-27T03:53:54.620Z,72
2018-08-27T03:56:09.576Z,96
2018-08-27T03:57:09.339Z,112
2018-08-27T03:58:09.615Z,120
2018-08-27T03:58:54.725Z,132
2018-08-27T03:59:55.011Z,152
2018-08-27T04:01:09.756Z,172
2018-08-27T04:01:54.785Z,184
2018-08-27T04:02:55.077Z,204
2018-08-27T04:04:09.862Z,232
2018-08-27T04:04:54.841Z,244
2018-08-27T04:05:55.124Z,272
2018-08-27T04:06:55.148Z,300
2018-08-27T04:08:09.825Z,340
2018-08-27T04:08:55.187Z,364
2018-08-27T04:09:54.691Z,400
2018-08-27T04:10:55.219Z,428
2018-08-27T04:11:55.343Z,464
2018-08-27T04:12:55.271Z,496
2018-08-27T04:13:55.281Z,532
2018-08-27T04:14:54.787Z,568
2018-08-27T04:15:55.328Z,612
2018-08-27T04:16:54.833Z,652
2018-08-27T04:17:55.376Z,696
2018-08-27T04:18:55.391Z,756
2018-08-27T04:20:09.810Z,876
2018-08-27T04:20:55.176Z,968
2018-08-27T04:21:55.452Z,1076
2018-08-27T04:23:09.868Z,1168
2018-08-27T04:23:55.488Z,1200
2018-08-27T04:24:55.513Z,1232
2018-08-27T04:25:55.268Z,1268
2018-08-27T04:26:55.291Z,1332
2018-08-27T04:27:55.567Z,1420
2018-08-27T04:28:55.871Z,1516
2018-08-27T04:29:55.608Z,1608
2018-08-27T04:31:55.401Z,1844
2018-08-27T04:32:55.676Z,1980
2018-08-27T04:33:55.432Z,2124
2018-08-27T04:34:56.094Z,2268
2018-08-27T04:36:10.401Z,2396
2018-08-27T04:36:55.237Z,2472
2018-08-27T04:37:55.777Z,2592
2018-08-27T04:38:55.792Z,2748
2018-08-27T04:39:55.554Z,2916
2018-08-27T04:40:55.843Z,3068
2018-08-27T04:41:55.607Z,3240
2018-08-27T04:43:10.538Z,3900
2018-08-27T04:43:55.639Z,4208
2018-08-27T04:44:55.931Z,4988
2018-08-27T04:45:55.945Z,8172
2018-08-27T04:46:55.782Z,11588
2018-08-27T04:47:55.992Z,6788
2018-08-27T04:48:55.758Z,4064
2018-08-27T04:49:56.025Z,3928
2018-08-27T04:51:55.810Z,4300
2018-08-27T04:52:55.573Z,4632
2018-08-27T04:53:55.859Z,5092
2018-08-27T04:54:55.614Z,7884
2018-08-27T04:56:10.813Z,15968
2018-08-27T04:56:56.178Z,9304
2018-08-27T04:57:55.937Z,7852
2018-08-27T04:58:56.218Z,10088
2018-08-27T04:59:56.230Z,10872
2018-08-27T05:00:56.254Z,11764
2018-08-27T05:02:10.676Z,7952
2018-08-27T05:02:56.314Z,7040
2018-08-27T05:03:56.331Z,6672
2018-08-27T05:04:56.342Z,6676
2018-08-27T05:05:56.360Z,6968
2018-08-27T05:06:55.867Z,8236
2018-08-27T05:07:56.405Z,14560
2018-08-27T05:08:56.434Z,38624
2018-08-27T05:09:56.449Z,40256
2018-08-27T05:10:56.474Z,28128
2018-08-27T05:11:55.975Z,5120
2018-08-27T05:12:56.513Z,4252
2018-08-27T05:13:56.343Z,3592
2018-08-27T05:14:56.569Z,3428
2018-08-27T05:15:56.588Z,3464
2018-08-27T05:16:56.354Z,3580
2018-08-27T05:17:56.372Z,3656
2018-08-27T05:18:56.652Z,3688
2018-08-27T05:20:56.182Z,3628
2018-08-27T05:21:56.200Z,3508
2018-08-27T05:23:11.403Z,3348
2018-08-27T05:24:56.526Z,3132
2018-08-27T05:25:56.551Z,3040
2018-08-27T05:26:56.570Z,2988
2018-08-27T05:28:11.249Z,2960
2018-08-27T05:28:56.357Z,3012
2018-08-27T05:29:56.388Z,3168
2018-08-27T05:30:57.117Z,3408
2018-08-27T05:31:56.700Z,3908
2018-08-27T05:32:56.984Z,4720
2018-08-27T05:33:56.723Z,4380
2018-08-27T05:34:57.009Z,4556
2018-08-27T05:35:57.028Z,4980
2018-08-27T05:36:56.794Z,5424
2018-08-27T05:38:11.771Z,5892
2018-08-27T05:39:11.762Z,6100
2018-08-27T05:39:56.857Z,6188
2018-08-27T05:40:57.159Z,6348
2018-08-27T05:41:56.902Z,6736
2018-08-27T05:42:56.926Z,7248
2018-08-27T05:43:57.203Z,7804
2018-08-27T05:44:56.967Z,8220
2018-08-27T05:46:11.651Z,8764
2018-08-27T05:47:11.930Z,9228
2018-08-27T05:47:57.611Z,9500
2018-08-27T05:48:57.053Z,10412
2018-08-27T05:49:57.082Z,13132
2018-08-27T05:50:57.357Z,9924
2018-08-27T05:51:56.865Z,10364
2018-08-27T05:52:57.415Z,10568
2018-08-27T05:53:57.437Z,14728
2018-08-27T05:55:11.851Z,9340
2018-08-27T05:55:57.209Z,9436
2018-08-27T05:56:57.497Z,10112
2018-08-27T05:57:57.513Z,10984
2018-08-27T05:58:57.535Z,21760
2018-08-27T05:59:57.566Z,37472
2018-08-27T06:00:57.585Z,36832
2018-08-27T06:01:57.928Z,61568
2018-08-27T06:02:57.371Z,60960
2018-08-27T06:03:57.401Z,60512
2018-08-27T06:04:57.416Z,63872
2018-08-27T06:05:57.181Z,63424
2018-08-27T06:07:57.230Z,62528
2018-08-27T06:09:57.549Z,39360
2018-08-27T06:11:12.007Z,22528
2018-08-27T06:12:12.505Z,23360
2018-08-27T06:13:12.277Z,38272
2018-08-27T06:14:12.555Z,25696
2018-08-27T06:15:12.580Z,26912
2018-08-27T06:15:57.953Z,31264
2018-08-27T06:16:58.007Z,38944
2018-08-27T06:17:58.007Z,41728
2018-08-27T06:18:58.051Z,53696
2018-08-27T06:19:57.539Z,64736
2018-08-27T06:20:57.571Z,62560
2018-08-27T06:21:58.493Z,57760
2018-08-27T06:23:12.795Z,28736
2018-08-27T06:23:58.271Z,20160
2018-08-27T06:24:57.733Z,20928
2018-08-27T06:26:12.614Z,16256
2018-08-27T06:26:58.247Z,15176
2018-08-27T06:28:12.925Z,16352
2018-08-27T06:28:58.079Z,15080
2018-08-27T06:29:58.056Z,14380
2018-08-27T06:31:58.110Z,15376
2018-08-27T06:32:58.398Z,14860
2018-08-27T06:33:57.918Z,15444
2018-08-27T06:34:58.472Z,14844
2018-08-27T06:36:12.620Z,15456
2018-08-27T06:36:58.497Z,16768
2018-08-27T06:37:58.887Z,18112
2018-08-27T06:38:58.567Z,19808
2018-08-27T06:39:58.057Z,33344
2018-08-27T06:40:58.340Z,76000
2018-08-27T06:41:57.853Z,57888
2018-08-27T06:42:58.657Z,31296
2018-08-27T06:43:58.678Z,25440
2018-08-27T06:44:58.444Z,23424
2018-08-27T06:45:58.573Z,22176
2018-08-27T06:46:58.497Z,23808
2018-08-27T06:47:58.532Z,33952
2018-08-27T06:48:58.294Z,44224
2018-08-27T06:49:58.574Z,25184
2018-08-27T06:50:58.346Z,19200
2018-08-27T06:52:13.291Z,19136
2018-08-27T06:52:58.916Z,16352
2018-08-27T06:53:58.418Z,13328
2018-08-27T06:54:58.964Z,12720
2018-08-27T06:55:58.996Z,12612
2018-08-27T06:56:58.754Z,12580
2018-08-27T06:58:13.709Z,12832
2018-08-27T06:59:13.723Z,13024
2018-08-27T07:00:13.542Z,13316
2018-08-27T07:00:59.005Z,13556
2018-08-27T07:02:13.568Z,14024
2018-08-27T07:02:59.166Z,14608
2018-08-27T07:03:58.941Z,15988
2018-08-27T07:04:59.221Z,17600
2018-08-27T07:06:13.903Z,22688
2018-08-27T07:06:59.014Z,26272
2018-08-27T07:07:58.773Z,28704
2018-08-27T07:08:59.060Z,18784
2018-08-27T07:10:14.009Z,16768
2018-08-27T07:11:59.398Z,17184
2018-08-27T07:13:14.082Z,23744
2018-08-27T07:14:28.768Z,17696
2018-08-27T07:14:59.211Z,17344
2018-08-27T07:15:59.496Z,22688
2018-08-27T07:16:59.521Z,14528
2018-08-27T07:17:59.292Z,13652
2018-08-27T07:18:59.063Z,13316
2018-08-27T07:19:59.337Z,13080
2018-08-27T07:20:59.363Z,12792
2018-08-27T07:21:59.654Z,12668
2018-08-27T07:22:59.668Z,12968
2018-08-27T07:23:59.710Z,13468
2018-08-27T07:24:59.723Z,13916
2018-08-27T07:25:59.749Z,14044
2018-08-27T07:26:59.257Z,14392
2018-08-27T07:27:59.543Z,14836
2018-08-27T07:28:59.834Z,17120
2018-08-27T07:30:14.513Z,15728
2018-08-27T07:31:14.535Z,15064
2018-08-27T07:31:59.688Z,14832
2018-08-27T07:32:59.676Z,15128
2018-08-27T07:33:59.432Z,14392
2018-08-27T07:34:59.980Z,12956
2018-08-27T07:35:59.508Z,11828
2018-08-27T07:37:00.027Z,10972
2018-08-27T07:37:59.274Z,10304
2018-08-27T07:39:00.070Z,9888
2018-08-27T07:39:59.842Z,9800
2018-08-27T07:41:00.154Z,9820
2018-08-27T07:41:59.905Z,9692
2018-08-27T07:42:59.912Z,9532
2018-08-27T07:43:59.951Z,9644
2018-08-27T07:44:59.977Z,10420
2018-08-27T07:46:29.572Z,11332
2018-08-27T07:47:00.273Z,11144
2018-08-27T07:48:14.702Z,10756
2018-08-27T07:49:00.166Z,10720
2018-08-27T07:50:00.356Z,11872
2018-08-27T07:51:00.377Z,13532
2018-08-27T07:52:00.428Z,15568
2018-08-27T07:53:00.169Z,19840
2018-08-27T07:54:15.113Z,25088
2018-08-27T07:55:00.476Z,25120
2018-08-27T07:56:15.163Z,51872
2018-08-27T07:57:01.529Z,54336
2018-08-27T07:58:00.310Z,55936
2018-08-27T07:59:00.576Z,38592
2018-08-27T08:00:00.623Z,34080
2018-08-27T08:01:15.287Z,30688
2018-08-27T08:03:00.681Z,21984
2018-08-27T08:04:00.448Z,21056
2018-08-27T08:05:00.481Z,24864
2018-08-27T08:06:00.769Z,27232
2018-08-27T08:07:00.530Z,25312
2018-08-27T08:08:00.558Z,29440
2018-08-27T08:09:15.714Z,22144
2018-08-27T08:10:15.531Z,19488
2018-08-27T08:11:00.886Z,19680
2018-08-27T08:12:00.914Z,19520
2018-08-27T08:13:00.953Z,21504
2018-08-27T08:14:00.707Z,21440
2018-08-27T08:15:00.223Z,39264
2018-08-27T08:16:01.020Z,52992
2018-08-27T08:17:00.796Z,37312
2018-08-27T08:18:01.090Z,26368
2018-08-27T08:19:00.840Z,23520
2018-08-27T08:20:00.894Z,47424
2018-08-27T08:21:00.995Z,41312
2018-08-27T08:22:01.178Z,43232
2018-08-27T08:23:01.606Z,49472
2018-08-27T08:24:01.263Z,40832
2018-08-27T08:25:01.293Z,34304
2018-08-27T08:26:01.935Z,31232
2018-08-27T08:27:01.090Z,26816
2018-08-27T08:28:01.373Z,40192
2018-08-27T08:29:01.116Z,37440
2018-08-27T08:30:01.205Z,32864
2018-08-27T08:31:01.206Z,39552
2018-08-27T08:32:01.648Z,42048
2018-08-27T08:33:30.963Z,34304
2018-08-27T08:34:01.554Z,32224
2018-08-27T08:35:01.045Z,33088
2018-08-27T08:36:01.619Z,30144
2018-08-27T08:37:01.447Z,34176
2018-08-27T08:38:01.153Z,29248
2018-08-27T08:39:01.691Z,29504
2018-08-27T08:40:02.361Z,31680
2018-08-27T08:41:16.120Z,28160
2018-08-27T08:42:01.745Z,26048
2018-08-27T08:43:01.514Z,29760
2018-08-27T08:44:01.798Z,31328
2018-08-27T08:45:01.844Z,23296
2018-08-27T08:46:01.352Z,21856
2018-08-27T08:47:01.895Z,21472
2018-08-27T08:48:01.695Z,20768
2018-08-27T08:49:16.385Z,23552
2018-08-27T08:50:02.042Z,21472
2018-08-27T08:51:01.773Z,22432
2018-08-27T08:52:02.051Z,22784
2018-08-27T08:53:02.074Z,27968
2018-08-27T08:54:01.848Z,33824
2018-08-27T08:55:01.910Z,25696
2018-08-27T08:56:02.255Z,24928
2018-08-27T08:57:02.254Z,24000
2018-08-27T08:58:32.085Z,26304
2018-08-27T08:59:16.755Z,26176
2018-08-27T09:00:01.784Z,23584
2018-08-27T09:01:02.085Z,23680
2018-08-27T09:02:02.309Z,22848
2018-08-27T09:03:02.357Z,22176
2018-08-27T09:04:02.110Z,21216
2018-08-27T09:05:17.060Z,19264
2018-08-27T09:06:17.113Z,19264
2018-08-27T09:07:02.452Z,19872
2018-08-27T09:08:02.434Z,22144
2018-08-27T09:09:02.542Z,24352
2018-08-27T09:10:02.543Z,26176
2018-08-27T09:11:02.314Z,25344
2018-08-27T09:12:02.082Z,29472
2018-08-27T09:13:02.371Z,26368
2018-08-27T09:14:02.762Z,26912
2018-08-27T09:15:02.422Z,27456
2018-08-27T09:16:02.716Z,23040
2018-08-27T09:17:03.051Z,24000
2018-08-27T09:18:02.511Z,22208
2018-08-27T09:19:02.802Z,21792
2018-08-27T09:20:02.564Z,22944
2018-08-27T09:21:17.523Z,21472
2018-08-27T09:22:02.876Z,20192
2018-08-27T09:23:02.919Z,19072
2018-08-27T09:24:03.042Z,18400
2018-08-27T09:25:17.368Z,18144
2018-08-27T09:26:17.662Z,17568
2018-08-27T09:28:03.053Z,16044
2018-08-27T09:29:17.747Z,15992
2018-08-27T09:30:02.853Z,15892
2018-08-27T09:31:17.819Z,15144
2018-08-27T09:32:02.911Z,14464
2018-08-27T09:33:17.737Z,13492
2018-08-27T09:34:02.702Z,13044
2018-08-27T09:35:02.730Z,12524
2018-08-27T09:36:17.687Z,12012
2018-08-27T09:37:03.697Z,11836
2018-08-27T09:38:17.990Z,11812
2018-08-27T09:40:17.792Z,12584
2018-08-27T09:41:03.420Z,12852
2018-08-27T09:42:03.197Z,12856
2018-08-27T09:43:18.130Z,12620
2018-08-27T09:44:03.241Z,12404
2018-08-27T09:45:17.926Z,12388
2018-08-27T09:46:04.105Z,12440
2018-08-27T09:47:03.959Z,12504
2018-08-27T09:48:03.605Z,12428
2018-08-27T09:49:18.298Z,11908
2018-08-27T09:50:03.424Z,11576
2018-08-27T09:51:03.527Z,11332
2018-08-27T09:52:03.459Z,11248
2018-08-27T09:53:03.972Z,11088
2018-08-27T09:54:03.510Z,10864
2018-08-27T09:55:03.836Z,10680
2018-08-27T09:56:03.571Z,10468
2018-08-27T09:57:03.338Z,10392
2018-08-27T09:58:03.619Z,10492
2018-08-27T10:01:03.706Z,11168
2018-08-27T10:02:18.392Z,11488
2018-08-27T10:03:03.756Z,11708
2018-08-27T10:04:03.782Z,11756
2018-08-27T10:05:04.075Z,11536
2018-08-27T10:06:04.087Z,11612
2018-08-27T10:07:03.883Z,11812
2018-08-27T10:08:18.811Z,11712
2018-08-27T10:09:03.843Z,11476
2018-08-27T10:10:04.211Z,11228
2018-08-27T10:11:03.721Z,10944
2018-08-27T10:12:04.264Z,10752
2018-08-27T10:13:04.284Z,11644
2018-08-27T10:14:04.051Z,12964
2018-08-27T10:15:04.205Z,14276
2018-08-27T10:16:03.589Z,14980
2018-08-27T10:17:04.129Z,15204
2018-08-27T10:18:04.164Z,15444
2018-08-27T10:19:04.181Z,15376
2018-08-27T10:20:18.898Z,15184
2018-08-27T10:21:18.899Z,14688
2018-08-27T10:22:04.593Z,14316
2018-08-27T10:23:04.283Z,14132
2018-08-27T10:25:04.082Z,13708
2018-08-27T10:26:04.363Z,13128
2018-08-27T10:28:04.161Z,12024
2018-08-27T10:29:04.441Z,11796
2018-08-27T10:30:05.180Z,11328
2018-08-27T10:31:04.757Z,11028
2018-08-27T10:32:04.270Z,10884
2018-08-27T10:33:04.812Z,10500
2018-08-27T10:34:04.843Z,10280
2018-08-27T10:35:04.867Z,10080
2018-08-27T10:36:04.639Z,9608
2018-08-27T10:37:19.725Z,8784
2018-08-27T10:38:04.954Z,8440
2018-08-27T10:39:04.464Z,8292
2018-08-27T10:40:19.661Z,8368
2018-08-27T10:41:05.025Z,8368
2018-08-27T10:42:04.789Z,8700
2018-08-27T10:43:05.114Z,8928
2018-08-27T10:44:05.110Z,9376
2018-08-27T10:45:05.134Z,10244
2018-08-27T10:46:04.637Z,10980
2018-08-27T10:47:19.843Z,11404
2018-08-27T10:48:05.208Z,11320
2018-08-27T10:49:04.976Z,10912
2018-08-27T10:50:05.158Z,10484
2018-08-27T10:51:19.690Z,9844
2018-08-27T10:52:05.308Z,9504
2018-08-27T10:53:05.092Z,9320
2018-08-27T10:54:05.382Z,9336
2018-08-27T10:55:04.875Z,9392
2018-08-27T10:56:20.083Z,9460
2018-08-27T10:57:05.200Z,9724
2018-08-27T10:58:05.573Z,10164
2018-08-27T10:59:05.510Z,10116
2018-08-27T11:00:05.272Z,9660
2018-08-27T11:01:20.265Z,9372
2018-08-27T11:02:19.983Z,9452
2018-08-27T11:03:05.611Z,9948
2018-08-27T11:04:20.290Z,11180
2018-08-27T11:05:05.473Z,12316
2018-08-27T11:06:05.426Z,13440
2018-08-27T11:07:05.454Z,12900
2018-08-27T11:08:05.482Z,12268
2018-08-27T11:09:04.991Z,11500
2018-08-27T11:10:05.014Z,10756
2018-08-27T11:11:20.220Z,10108
2018-08-27T11:12:05.324Z,9932
2018-08-27T11:13:05.882Z,9648
2018-08-27T11:14:05.895Z,9520
2018-08-27T11:15:20.083Z,9420
2018-08-27T11:16:06.166Z,9420
2018-08-27T11:17:05.970Z,9292
2018-08-27T11:18:06.010Z,9284
2018-08-27T11:19:05.509Z,9188
2018-08-27T11:21:20.482Z,8124
2018-08-27T11:22:05.850Z,7664
2018-08-27T11:23:06.131Z,7288
2018-08-27T11:24:06.166Z,7264
2018-08-27T11:25:05.927Z,7284
2018-08-27T11:26:06.238Z,7636
2018-08-27T11:27:05.462Z,8032
2018-08-27T11:28:06.003Z,8316
2018-08-27T11:29:06.064Z,8744
2018-08-27T11:31:06.341Z,9308
2018-08-27T11:32:06.369Z,9536
2018-08-27T11:33:06.537Z,9336
2018-08-27T11:34:06.161Z,8984
2018-08-27T11:35:21.111Z,8392
2018-08-27T11:36:06.224Z,8072
2018-08-27T11:37:05.981Z,7856
2018-08-27T11:38:06.269Z,7812
2018-08-27T11:39:06.552Z,7996
2018-08-27T11:40:06.585Z,7976
2018-08-27T11:41:06.343Z,7936
2018-08-27T11:42:06.112Z,7736
2018-08-27T11:43:21.462Z,7356
2018-08-27T11:44:21.090Z,7164
2018-08-27T11:45:06.469Z,6952
2018-08-27T11:46:06.480Z,6560
2018-08-27T11:47:21.159Z,6172
2018-08-27T11:48:06.266Z,6064
2018-08-27T11:49:06.571Z,6032
2018-08-27T11:50:06.757Z,6052
2018-08-27T11:51:06.938Z,6128
2018-08-27T11:52:06.369Z,6172
2018-08-27T11:53:06.916Z,6548
2018-08-27T11:54:06.680Z,7048
2018-08-27T11:55:07.514Z,7720
2018-08-27T11:56:06.737Z,8080
2018-08-27T11:57:06.758Z,8216
2018-08-27T11:58:06.790Z,8508
2018-08-27T11:59:21.727Z,8920
2018-08-27T12:00:06.887Z,8992
2018-08-27T12:02:07.361Z,9400
2018-08-27T12:03:06.912Z,9088
2018-08-27T12:04:21.864Z,9096
2018-08-27T12:05:06.704Z,9220
2018-08-27T12:06:06.993Z,9536
2018-08-27T12:07:07.284Z,10092
2018-08-27T12:08:07.038Z,10000
2018-08-27T12:10:07.361Z,10240
2018-08-27T12:11:22.043Z,9884
2018-08-27T12:12:06.888Z,9632
2018-08-27T12:13:07.431Z,9432
2018-08-27T12:14:07.456Z,9448
2018-08-27T12:15:21.883Z,9376
2018-08-27T12:16:07.250Z,9148
2018-08-27T12:17:07.328Z,8988
2018-08-27T12:18:21.965Z,8600
2018-08-27T12:20:07.366Z,8260
2018-08-27T12:21:07.642Z,8044
2018-08-27T12:22:07.407Z,8024
2018-08-27T12:23:07.693Z,8104
2018-08-27T12:24:07.458Z,7992
2018-08-27T12:25:07.750Z,7908
2018-08-27T12:26:22.174Z,7628
2018-08-27T12:27:07.534Z,7500
2018-08-27T12:28:07.562Z,7116
2018-08-27T12:29:07.428Z,7168
2018-08-27T12:30:07.719Z,7560
2018-08-27T12:31:22.558Z,7844
2018-08-27T12:32:07.667Z,7836
2018-08-27T12:33:22.403Z,7760
2018-08-27T12:34:22.378Z,7436
2018-08-27T12:35:08.008Z,7152
2018-08-27T12:36:08.033Z,6760
2018-08-27T12:39:07.588Z,7748
2018-08-27T12:40:07.903Z,8168
2018-08-27T12:41:08.433Z,7836
2018-08-27T12:42:07.935Z,7800
2018-08-27T12:43:07.955Z,7640
2018-08-27T12:44:08.246Z,7324
2018-08-27T12:45:08.013Z,7448
2018-08-27T12:46:22.689Z,7528
2018-08-27T12:47:08.317Z,7852
2018-08-27T12:50:08.132Z,8840
2018-08-27T12:52:07.927Z,8704
2018-08-27T12:53:08.215Z,8852
2018-08-27T12:54:08.503Z,9120
2018-08-27T12:55:08.008Z,9076
2018-08-27T12:56:08.292Z,8964
2018-08-27T12:57:08.318Z,9172
2018-08-27T12:58:08.611Z,9536
2018-08-27T12:59:08.645Z,9496
2018-08-27T13:00:08.393Z,8616
2018-08-27T13:01:08.684Z,8012
2018-08-27T13:02:23.383Z,7916
2018-08-27T13:03:08.473Z,8156
2018-08-27T13:04:08.755Z,8344
2018-08-27T13:05:08.531Z,8392
2018-08-27T13:06:08.294Z,8248
2018-08-27T13:07:08.595Z,7992
2018-08-27T13:08:08.568Z,7856
2018-08-27T13:09:08.378Z,7732
2018-08-27T13:10:08.140Z,7584
2018-08-27T13:11:08.483Z,7340
2018-08-27T13:12:23.470Z,7164
2018-08-27T13:13:08.868Z,7136
2018-08-27T13:14:08.763Z,7108
2018-08-27T13:15:08.800Z,7064
2018-08-27T13:16:08.824Z,7096
2018-08-27T13:17:23.503Z,7408
2018-08-27T13:18:38.446Z,7680
2018-08-27T13:19:09.496Z,7836
2018-08-27T13:20:09.022Z,8108
2018-08-27T13:21:23.605Z,8316
2018-08-27T13:22:09.232Z,8284
2018-08-27T13:23:08.742Z,8452
2018-08-27T13:24:09.024Z,8556
2018-08-27T13:25:09.305Z,8556
2018-08-27T13:26:09.352Z,8536
2018-08-27T13:27:09.119Z,8804
2018-08-27T13:28:09.464Z,9220
2018-08-27T13:29:09.157Z,9668
2018-08-27T13:30:09.702Z,9588
2018-08-27T13:31:09.203Z,9512
2018-08-27T13:33:09.000Z,9256
2018-08-27T13:34:24.242Z,9376
2018-08-27T13:35:09.333Z,9444
2018-08-27T13:36:09.335Z,9392
2018-08-27T13:37:09.099Z,9152
2018-08-27T13:39:09.427Z,8920
2018-08-27T13:40:24.220Z,8828
2018-08-27T13:41:08.948Z,8788
2018-08-27T13:42:09.235Z,8612
2018-08-27T13:43:24.178Z,8252
2018-08-27T13:44:09.542Z,8156
2018-08-27T13:45:09.572Z,8168
2018-08-27T13:46:09.862Z,8156
2018-08-27T13:47:09.362Z,7956
2018-08-27T13:48:09.809Z,7632
2018-08-27T13:50:24.103Z,7024
2018-08-27T13:51:09.995Z,6880
2018-08-27T13:52:10.008Z,6648
2018-08-27T13:53:10.047Z,6408
2018-08-27T13:54:09.854Z,6184
2018-08-27T13:55:10.087Z,5808
2018-08-27T13:56:10.120Z,5528
2018-08-27T13:57:10.157Z,5416
2018-08-27T13:58:10.247Z,5400
2018-08-27T13:59:09.945Z,5328
2018-08-27T14:00:24.747Z,5236
2018-08-27T14:01:10.244Z,5208
2018-08-27T14:02:10.016Z,5164
2018-08-27T14:03:09.784Z,5292
2018-08-27T14:04:09.808Z,5644
2018-08-27T14:05:10.582Z,5688
2018-08-27T14:06:25.015Z,5408
2018-08-27T14:07:10.410Z,5204
2018-08-27T14:08:10.436Z,5008
2018-08-27T14:09:10.085Z,4892
2018-08-27T14:10:10.490Z,4936